createdAt,value
2023-11-14T00:01:13.648Z,96596.84
2023-11-14T00:03:40.323Z,96596.03
2023-11-14T00:06:07.145Z,96588.34
2023-11-14T00:08:33.799Z,96589.19
2023-11-14T00:11:00.521Z,96602.00
2023-11-14T00:13:27.268Z,96601.97
2023-11-14T00:15:54.115Z,96612.19
2023-11-14T00:18:20.881Z,96616.47
2023-11-14T00:20:47.518Z,96616.47
2023-11-14T00:23:14.045Z,96610.50
2023-11-14T00:25:40.947Z,96606.22
2023-11-14T00:28:08.802Z,96606.22
2023-11-14T00:30:35.426Z,96594.25
2023-11-14T00:33:02.306Z,96594.25
2023-11-14T00:35:28.891Z,96577.22
2023-11-14T00:37:55.712Z,96592.56
2023-11-14T00:40:24.827Z,96610.47
2023-11-14T00:42:51.376Z,96616.47
2023-11-14T00:45:17.983Z,96611.34
2023-11-14T00:47:44.644Z,96615.59
2023-11-14T00:50:13.046Z,96616.47
2023-11-14T00:52:39.749Z,96610.47
2023-11-14T00:55:08.166Z,96624.94
2023-11-14T00:57:34.726Z,96630.94
2023-11-14T01:00:01.324Z,96635.19
2023-11-14T01:02:28.180Z,96657.38
2023-11-14T01:04:54.860Z,96659.06
2023-11-14T01:07:21.445Z,96659.06
2023-11-14T01:09:49.158Z,96660.75
2023-11-14T01:12:15.797Z,96667.59
2023-11-14T01:14:42.391Z,96673.53
2023-11-14T01:17:09.131Z,96680.41
2023-11-14T01:19:41.895Z,96679.53
2023-11-14T01:22:08.908Z,96697.44
2023-11-14T01:24:35.491Z,96698.31
2023-11-14T01:27:03.550Z,96702.56
2023-11-14T01:29:30.244Z,96706.00
2023-11-14T01:31:56.963Z,96701.69
2023-11-14T01:34:24.288Z,96702.56
2023-11-14T01:36:52.476Z,96688.91
2023-11-14T01:39:19.058Z,96696.59
2023-11-14T01:41:46.289Z,96685.53
2023-11-14T01:44:12.855Z,96680.41
2023-11-14T01:46:39.475Z,96676.13
2023-11-14T01:49:06.116Z,96696.56
2023-11-14T01:51:32.696Z,96696.53
2023-11-14T01:53:59.238Z,96705.94
2023-11-14T01:56:25.946Z,96699.09
2023-11-14T01:58:52.672Z,96694.00
2023-11-14T02:01:23.143Z,96698.28
2023-11-14T02:03:49.968Z,96697.41
2023-11-14T02:06:16.563Z,96707.66
2023-11-14T02:08:43.178Z,96705.09
2023-11-14T02:11:09.818Z,96703.41
2023-11-14T02:13:36.523Z,96692.31
2023-11-14T02:16:03.426Z,96692.31
2023-11-14T02:18:30.159Z,96696.56
2023-11-14T02:20:56.753Z,96704.22
2023-11-14T02:23:23.487Z,96716.19
2023-11-14T02:25:50.142Z,96723.88
2023-11-14T02:28:16.732Z,96733.22
2023-11-14T02:30:43.282Z,96746.03
2023-11-14T02:33:09.962Z,96759.66
2023-11-14T02:35:36.546Z,96751.97
2023-11-14T02:38:03.216Z,96751.13
2023-11-14T02:40:29.935Z,96763.91
2023-11-14T02:42:56.668Z,96761.34
2023-11-14T02:45:23.265Z,96757.09
2023-11-14T02:47:50.262Z,96757.94
2023-11-14T02:50:31.943Z,96754.56
2023-11-14T02:53:00.244Z,96743.47
2023-11-14T02:55:26.893Z,96729.81
2023-11-14T02:57:53.715Z,96728.13
2023-11-14T03:00:20.290Z,96734.09
2023-11-14T03:02:46.917Z,96743.50
2023-11-14T03:05:16.732Z,96728.13
2023-11-14T03:07:43.477Z,96739.22
2023-11-14T03:10:10.614Z,96758.81
2023-11-14T03:12:37.237Z,96747.72
2023-11-14T03:15:03.992Z,96744.31
2023-11-14T03:17:30.544Z,96754.53
2023-11-14T03:19:57.096Z,96730.50
2023-11-14T03:22:24.459Z,96757.06
2023-11-14T03:24:51.067Z,96762.22
2023-11-14T03:27:18.022Z,96757.09
2023-11-14T03:29:45.323Z,96764.78
2023-11-14T03:32:12.011Z,96763.06
2023-11-14T03:34:38.666Z,96763.06
2023-11-14T03:37:05.205Z,96751.16
2023-11-14T03:39:34.662Z,96761.38
2023-11-14T03:42:01.636Z,96754.56
2023-11-14T03:44:28.226Z,96769.94
2023-11-14T03:46:54.789Z,96772.47
2023-11-14T03:49:21.335Z,96760.53
2023-11-14T03:51:47.893Z,96780.13
2023-11-14T03:54:14.397Z,96780.13
2023-11-14T03:56:40.954Z,96775.00
2023-11-14T03:59:07.518Z,96779.25
2023-11-14T04:01:34.265Z,96778.38
2023-11-14T04:04:00.908Z,96775.81
2023-11-14T04:06:27.541Z,96780.94
2023-11-14T04:08:54.249Z,96777.53
2023-11-14T04:11:20.874Z,96761.34
2023-11-14T04:13:48.818Z,96761.34
2023-11-14T04:16:16.431Z,96782.69
2023-11-14T04:18:43.469Z,96792.91
2023-11-14T04:21:20.149Z,96802.28
2023-11-14T04:23:47.716Z,96798.88
2023-11-14T04:26:15.907Z,96815.09
2023-11-14T04:28:42.723Z,96821.88
2023-11-14T04:31:09.663Z,96831.25
2023-11-14T04:33:36.334Z,96836.41
2023-11-14T04:36:02.974Z,96830.41
2023-11-14T04:38:29.523Z,96838.94
2023-11-14T04:40:56.444Z,96791.59
2023-11-14T04:43:23.004Z,96827.81
2023-11-14T04:45:49.532Z,96837.22
2023-11-14T04:48:16.123Z,96843.19
2023-11-14T04:50:42.668Z,96853.44
2023-11-14T04:53:09.720Z,96860.22
2023-11-14T04:55:37.904Z,96861.06
2023-11-14T04:58:04.647Z,96843.22
2023-11-14T05:00:31.316Z,96843.19
2023-11-14T05:02:57.956Z,96848.31
2023-11-14T05:05:25.528Z,96847.47
2023-11-14T05:07:52.188Z,96845.69
2023-11-14T05:10:18.985Z,96847.47
2023-11-14T05:12:45.535Z,96850.03
2023-11-14T05:15:12.164Z,96850.03
2023-11-14T05:17:40.547Z,96847.47
2023-11-14T05:20:08.338Z,96846.63
2023-11-14T05:22:35.165Z,96844.06
2023-11-14T05:25:01.723Z,96861.13
2023-11-14T05:27:28.679Z,96857.72
2023-11-14T05:29:56.385Z,96862.84
2023-11-14T05:32:23.731Z,96871.38
2023-11-14T05:34:50.413Z,96849.22
2023-11-14T05:37:17.042Z,96847.50
2023-11-14T05:39:43.590Z,96843.22
2023-11-14T05:42:10.143Z,96845.75
2023-11-14T05:44:36.678Z,96852.59
2023-11-14T05:47:03.374Z,96866.28
2023-11-14T05:49:31.061Z,96872.22
2023-11-14T05:51:57.635Z,96873.91
2023-11-14T05:54:24.160Z,96874.78
2023-11-14T05:56:50.680Z,96873.91
2023-11-14T05:59:17.236Z,96887.59
2023-11-14T06:01:45.156Z,96885.84
2023-11-14T06:04:11.761Z,96879.00
2023-11-14T06:06:38.345Z,96889.28
2023-11-14T06:09:04.911Z,96895.25
2023-11-14T06:11:31.536Z,96893.50
2023-11-14T06:13:58.086Z,96896.06
2023-11-14T06:16:27.336Z,96889.25
2023-11-14T06:18:54.004Z,96901.16
2023-11-14T06:21:20.512Z,96897.72
2023-11-14T06:23:47.379Z,96903.66
2023-11-14T06:26:14.697Z,96902.75
2023-11-14T06:28:41.326Z,96905.31
2023-11-14T06:31:07.922Z,96907.88
2023-11-14T06:33:34.974Z,96909.59
2023-11-14T06:36:01.542Z,96912.16
2023-11-14T06:38:30.936Z,96921.50
2023-11-14T06:40:59.822Z,96922.31
2023-11-14T06:43:26.429Z,96929.13
2023-11-14T06:45:53.068Z,96935.91
2023-11-14T06:48:19.603Z,96937.63
2023-11-14T06:50:47.629Z,96939.31
2023-11-14T06:53:14.715Z,96951.28
2023-11-14T06:55:41.564Z,96945.31
2023-11-14T06:58:08.888Z,96951.28
2023-11-14T07:00:36.624Z,96953.84
2023-11-14T07:03:03.290Z,96954.69
2023-11-14T07:05:31.509Z,96943.59
2023-11-14T07:07:58.964Z,96950.44
2023-11-14T07:10:25.679Z,96954.69
2023-11-14T07:12:52.265Z,96973.44
2023-11-14T07:15:21.756Z,96976.00
2023-11-14T07:17:49.061Z,96975.00
2023-11-14T07:20:21.579Z,96991.38
2023-11-14T07:22:52.172Z,97003.34
2023-11-14T07:25:18.812Z,97010.13
2023-11-14T07:27:48.130Z,97003.38
2023-11-14T07:30:14.842Z,97011.91
2023-11-14T07:32:42.297Z,97026.41
2023-11-14T07:35:11.579Z,97012.75
2023-11-14T07:37:38.497Z,97026.41
2023-11-14T07:40:08.271Z,97024.72
2023-11-14T07:42:34.881Z,97034.97
2023-11-14T07:45:01.498Z,97035.78
2023-11-14T07:47:28.225Z,97022.97
2023-11-14T07:49:55.145Z,97008.50
2023-11-14T07:52:21.816Z,96997.47
2023-11-14T07:54:48.662Z,96997.50
2023-11-14T07:57:15.322Z,96995.78
2023-11-14T07:59:41.990Z,97022.22
2023-11-14T08:02:08.693Z,97025.66
2023-11-14T08:04:35.520Z,97034.22
2023-11-14T08:07:02.525Z,97049.56
2023-11-14T08:09:29.955Z,97059.81
2023-11-14T08:11:56.522Z,97058.97
2023-11-14T08:14:23.140Z,97057.28
2023-11-14T08:16:49.870Z,97054.72
2023-11-14T08:19:16.517Z,97049.59
2023-11-14T08:21:43.155Z,97041.91
2023-11-14T08:24:11.117Z,97025.72
2023-11-14T08:26:37.675Z,97022.31
2023-11-14T08:29:04.417Z,97018.06
2023-11-14T08:31:31.071Z,97022.31
2023-11-14T08:33:57.641Z,97032.56
2023-11-14T08:36:24.199Z,97041.09
2023-11-14T08:38:50.764Z,97052.19
2023-11-14T08:41:17.906Z,97053.06
2023-11-14T08:43:44.609Z,97068.41
2023-11-14T08:46:12.254Z,97068.44
2023-11-14T08:48:38.883Z,97069.28
2023-11-14T08:51:05.500Z,97078.63
2023-11-14T08:53:32.070Z,97075.22
2023-11-14T08:55:58.737Z,97078.59
2023-11-14T08:58:25.311Z,97077.75
2023-11-14T09:00:54.351Z,97074.41
2023-11-14T09:03:21.024Z,97071.81
2023-11-14T09:05:47.718Z,97071.81
2023-11-14T09:08:14.343Z,97074.38
2023-11-14T09:10:41.085Z,97082.88
2023-11-14T09:13:08.005Z,97074.38
2023-11-14T09:15:34.650Z,97080.34
2023-11-14T09:18:01.426Z,97082.06
2023-11-14T09:20:28.121Z,97082.91
2023-11-14T09:22:57.870Z,97089.78
2023-11-14T09:25:26.222Z,97087.19
2023-11-14T09:27:52.748Z,97077.78
2023-11-14T09:30:20.058Z,97079.50
2023-11-14T09:32:47.357Z,97077.78
2023-11-14T09:35:16.084Z,97067.53
2023-11-14T09:37:43.371Z,97051.34
2023-11-14T09:40:14.360Z,97053.03
2023-11-14T09:42:40.878Z,97043.66
2023-11-14T09:45:08.181Z,97042.78
2023-11-14T09:47:34.851Z,97029.16
2023-11-14T09:50:01.409Z,97013.81
2023-11-14T09:52:28.050Z,97020.63
2023-11-14T09:54:54.553Z,97030.03
2023-11-14T09:57:21.130Z,97028.34
2023-11-14T09:59:47.709Z,97031.75
2023-11-14T10:02:14.321Z,97031.69
2023-11-14T10:04:44.168Z,97043.72
2023-11-14T10:07:10.778Z,97041.94
2023-11-14T10:09:40.501Z,97040.25
2023-11-14T10:12:20.796Z,97036.06
2023-11-14T10:14:51.971Z,97012.06
2023-11-14T10:17:20.272Z,97001.88
2023-11-14T10:20:19.301Z,96996.78
2023-11-14T10:22:56.165Z,96991.66
2023-11-14T10:25:32.629Z,97010.44
2023-11-14T10:28:05.517Z,97025.75
2023-11-14T10:30:44.127Z,97025.78
2023-11-14T10:33:11.030Z,97036.84
2023-11-14T10:35:37.744Z,97049.66
2023-11-14T10:38:21.989Z,97041.13
2023-11-14T10:40:58.827Z,97042.00
2023-11-14T10:43:36.388Z,97034.22
2023-11-14T10:46:10.321Z,97030.91
2023-11-14T10:48:36.956Z,97012.16
2023-11-14T10:51:05.060Z,97026.63
2023-11-14T10:53:31.801Z,96997.66
2023-11-14T10:55:58.434Z,96998.47
2023-11-14T10:58:25.205Z,97036.03
2023-11-14T11:00:52.407Z,96988.91
2023-11-14T11:03:19.005Z,97007.81
2023-11-14T11:05:48.030Z,96995.00
2023-11-14T11:08:15.960Z,96989.13
2023-11-14T11:10:43.867Z,96981.41
2023-11-14T11:13:12.978Z,96986.56
2023-11-14T11:15:43.915Z,96989.97
2023-11-14T11:18:10.480Z,97002.75
2023-11-14T11:20:37.070Z,97013.03
2023-11-14T11:23:09.765Z,97009.59
2023-11-14T11:25:37.504Z,97005.31
2023-11-14T11:28:22.593Z,97008.75
2023-11-14T11:31:14.211Z,97008.72
2023-11-14T11:33:49.891Z,96994.25
2023-11-14T11:36:22.229Z,96999.34
2023-11-14T11:39:01.957Z,96995.09
2023-11-14T11:41:32.019Z,96987.41
2023-11-14T11:44:11.802Z,96978.88
2023-11-14T11:46:42.328Z,96975.44
2023-11-14T11:49:11.981Z,96973.75
2023-11-14T11:51:44.904Z,96964.38
2023-11-14T11:54:26.467Z,96950.72
2023-11-14T11:57:08.145Z,96975.47
2023-11-14T11:59:40.896Z,96970.34
2023-11-14T12:02:24.886Z,96944.75
2023-11-14T12:04:55.882Z,96949.03
2023-11-14T12:07:23.887Z,96955.91
2023-11-14T12:09:52.386Z,96945.66
2023-11-14T12:12:19.621Z,96941.41
2023-11-14T12:14:46.703Z,96933.75
2023-11-14T12:17:13.321Z,96911.56
2023-11-14T12:19:39.957Z,96899.63
2023-11-14T12:22:07.995Z,96878.28
2023-11-14T12:24:34.757Z,96851.72
2023-11-14T12:27:01.454Z,96854.44
2023-11-14T12:29:28.067Z,96841.66
2023-11-14T12:31:55.814Z,96828.84
2023-11-14T12:34:32.387Z,96825.44
2023-11-14T12:37:11.580Z,96831.44
2023-11-14T12:39:38.144Z,96817.78
2023-11-14T12:42:08.762Z,96828.00
2023-11-14T12:44:36.039Z,96837.38
2023-11-14T12:47:02.754Z,96843.38
2023-11-14T12:49:30.116Z,96865.56
2023-11-14T12:51:58.742Z,96869.00
2023-11-14T12:54:26.337Z,96864.72
2023-11-14T12:56:55.289Z,96861.28
2023-11-14T12:59:22.313Z,96866.41
2023-11-14T13:01:52.492Z,96857.84
2023-11-14T13:04:19.281Z,96857.84
2023-11-14T13:06:47.426Z,96848.44
2023-11-14T13:09:16.551Z,96840.78
2023-11-14T13:11:43.580Z,96819.44
2023-11-14T13:14:10.513Z,96814.31
2023-11-14T13:16:37.215Z,96800.72
2023-11-14T13:19:04.373Z,96794.66
2023-11-14T13:21:30.935Z,96814.34
2023-11-14T13:23:57.990Z,96835.69
2023-11-14T13:26:24.745Z,96839.09
2023-11-14T13:28:51.745Z,96826.25
2023-11-14T13:31:19.411Z,96822.91
2023-11-14T13:33:46.141Z,96804.13
2023-11-14T13:36:16.645Z,96801.56
2023-11-14T13:38:45.558Z,96804.97
2023-11-14T13:41:16.326Z,96824.56
2023-11-14T13:43:43.656Z,96832.25
2023-11-14T13:46:20.911Z,96839.91
2023-11-14T13:48:53.889Z,96845.88
2023-11-14T13:51:20.505Z,96848.47
2023-11-14T13:53:47.060Z,96831.41
2023-11-14T13:56:13.729Z,96824.56
2023-11-14T13:58:40.718Z,96804.09
2023-11-14T14:01:13.497Z,96793.88
2023-11-14T14:03:40.518Z,96789.63
2023-11-14T14:06:08.650Z,96772.59
2023-11-14T14:08:36.111Z,96774.28
2023-11-14T14:11:03.244Z,96769.16
2023-11-14T14:13:29.851Z,96786.22
2023-11-14T14:15:56.441Z,96775.16
2023-11-14T14:18:23.872Z,96772.63
2023-11-14T14:20:51.960Z,96776.84
2023-11-14T14:23:24.185Z,96753.72
2023-11-14T14:25:50.862Z,96770.88
2023-11-14T14:28:21.357Z,96769.19
2023-11-14T14:30:47.955Z,96774.31
2023-11-14T14:33:14.596Z,96776.88
2023-11-14T14:35:41.178Z,96743.31
2023-11-14T14:38:09.533Z,96784.59
2023-11-14T14:40:36.146Z,96778.63
2023-11-14T14:43:03.849Z,96771.78
2023-11-14T14:45:30.559Z,96776.06
2023-11-14T14:47:57.234Z,96779.50
2023-11-14T14:50:26.793Z,96778.63
2023-11-14T14:52:55.202Z,96792.28
2023-11-14T14:55:24.100Z,96804.22
2023-11-14T14:57:59.609Z,96804.22
2023-11-14T15:00:27.477Z,96808.47
2023-11-14T15:02:54.079Z,96805.91
2023-11-14T15:05:23.628Z,96808.47
2023-11-14T15:07:51.061Z,96811.03
2023-11-14T15:10:17.796Z,96804.16
2023-11-14T15:12:44.799Z,96802.47
2023-11-14T15:15:12.112Z,96796.47
2023-11-14T15:17:38.934Z,96795.66
2023-11-14T15:20:08.608Z,96769.22
2023-11-14T15:22:35.999Z,96776.03
2023-11-14T15:25:06.312Z,96776.91
2023-11-14T15:27:34.922Z,96776.06
2023-11-14T15:30:02.233Z,96770.09
2023-11-14T15:32:28.839Z,96777.81
2023-11-14T15:34:55.662Z,96784.66
2023-11-14T15:37:22.187Z,96790.66
2023-11-14T15:39:48.804Z,96798.34
2023-11-14T15:42:15.403Z,96789.78
2023-11-14T15:44:42.601Z,96794.91
2023-11-14T15:47:09.163Z,96793.22
2023-11-14T15:49:35.764Z,96794.91
2023-11-14T15:52:02.346Z,96803.38
2023-11-14T15:54:28.919Z,96807.72
2023-11-14T15:56:55.790Z,96811.13
2023-11-14T15:59:23.432Z,96805.13
2023-11-14T16:01:50.366Z,96815.38
2023-11-14T16:04:17.077Z,96803.41
2023-11-14T16:06:43.677Z,96803.41
2023-11-14T16:09:11.837Z,96799.13
2023-11-14T16:11:38.446Z,96803.44
2023-11-14T16:14:07.671Z,96792.28
2023-11-14T16:16:34.362Z,96776.09
2023-11-14T16:19:00.978Z,96771.00
2023-11-14T16:21:27.601Z,96771.84
2023-11-14T16:23:56.487Z,96779.50
2023-11-14T16:26:23.427Z,96775.25
2023-11-14T16:28:49.979Z,96748.78
2023-11-14T16:31:17.646Z,96736.88
2023-11-14T16:33:45.171Z,96736.88
2023-11-14T16:36:11.715Z,96741.13
2023-11-14T16:38:38.235Z,96756.50
2023-11-14T16:41:05.058Z,96742.72
2023-11-14T16:43:31.645Z,96757.34
2023-11-14T16:45:58.287Z,96762.47
2023-11-14T16:48:25.173Z,96766.72
2023-11-14T16:50:51.732Z,96750.50
2023-11-14T16:53:19.377Z,96744.56
2023-11-14T16:55:46.050Z,96744.56
2023-11-14T16:58:12.635Z,96727.47
2023-11-14T17:00:39.464Z,96732.59
2023-11-14T17:03:06.128Z,96729.19
2023-11-14T17:05:32.780Z,96721.50
2023-11-14T17:07:59.348Z,96717.22
2023-11-14T17:10:27.260Z,96701.88
2023-11-14T17:12:54.012Z,96689.94
2023-11-14T17:15:20.543Z,96706.16
2023-11-14T17:17:48.037Z,96720.66
2023-11-14T17:20:14.814Z,96715.53
2023-11-14T17:22:42.770Z,96682.25
2023-11-14T17:25:09.736Z,96669.47
2023-11-14T17:27:36.348Z,96671.16
2023-11-14T17:30:02.953Z,96677.16
2023-11-14T17:32:30.989Z,96663.50
2023-11-14T17:34:58.753Z,96643.91
2023-11-14T17:37:26.901Z,96638.78
2023-11-14T17:39:53.444Z,96672.03
2023-11-14T17:42:19.985Z,96672.88
2023-11-14T17:44:47.267Z,96681.41
2023-11-14T17:47:14.932Z,96685.69
2023-11-14T17:49:41.891Z,96678.00
2023-11-14T17:52:08.647Z,96658.38
2023-11-14T17:54:35.260Z,96654.13
2023-11-14T17:57:02.075Z,96653.25
2023-11-14T17:59:28.754Z,96643.03
2023-11-14T18:01:55.625Z,96642.19
2023-11-14T18:04:24.200Z,96631.09
2023-11-14T18:06:50.938Z,96618.31
2023-11-14T18:09:18.201Z,96620.00
2023-11-14T18:11:45.881Z,96632.00
2023-11-14T18:14:12.472Z,96643.06
2023-11-14T18:16:39.058Z,96643.94
2023-11-14T18:19:06.002Z,96626.88
2023-11-14T18:21:32.539Z,96617.47
2023-11-14T18:23:59.662Z,96582.22
2023-11-14T18:26:27.462Z,96630.28
2023-11-14T18:28:54.837Z,96619.19
2023-11-14T18:31:21.393Z,96620.06
2023-11-14T18:33:47.950Z,96615.84
2023-11-14T18:36:14.545Z,96625.25
2023-11-14T18:38:41.526Z,96623.56
2023-11-14T18:41:09.205Z,96625.28
2023-11-14T18:43:35.884Z,96626.16
2023-11-14T18:46:02.413Z,96615.06
2023-11-14T18:48:29.312Z,96617.59
2023-11-14T18:50:56.963Z,96622.72
2023-11-14T18:53:23.620Z,96631.28
2023-11-14T18:55:50.149Z,96637.25
2023-11-14T18:58:19.113Z,96626.13
2023-11-14T19:00:46.120Z,96609.06
2023-11-14T19:03:13.000Z,96590.28
2023-11-14T19:05:39.716Z,96565.56
2023-11-14T19:08:06.609Z,96562.13
2023-11-14T19:10:33.311Z,96522.53
2023-11-14T19:12:59.859Z,96581.72
2023-11-14T19:15:26.481Z,96580.03
2023-11-14T19:17:53.076Z,96581.72
2023-11-14T19:20:19.663Z,96575.78
2023-11-14T19:23:36.326Z,96565.53
2023-11-14T19:25:32.729Z,96557.88
2023-11-14T19:27:59.288Z,96566.34
2023-11-14T19:30:26.319Z,96566.38
2023-11-14T19:32:52.944Z,96563.81
2023-11-14T19:35:19.518Z,96568.09
2023-11-14T19:37:46.168Z,96557.88
2023-11-14T19:40:13.299Z,96562.09
2023-11-14T19:42:39.942Z,96552.72
2023-11-14T19:45:06.877Z,96557.84
2023-11-14T19:47:38.244Z,96552.72
2023-11-14T19:52:31.847Z,96551.00
2023-11-14T19:54:58.414Z,96556.09
2023-11-14T20:02:18.081Z,96553.56
2023-11-14T20:04:44.730Z,96550.16
2023-11-14T20:07:11.391Z,96550.16
2023-11-14T20:09:37.964Z,96536.53
2023-11-14T20:12:04.872Z,96531.41
2023-11-14T20:14:31.604Z,96513.50
2023-11-14T20:16:58.119Z,96522.03
2023-11-14T20:19:24.612Z,96523.72
2023-11-14T20:21:51.195Z,96522.03
2023-11-14T20:24:17.771Z,96520.31
2023-11-14T20:26:44.428Z,96519.47
2023-11-14T20:29:11.151Z,96507.50
2023-11-14T20:31:37.838Z,96514.34
2023-11-14T20:34:04.418Z,96514.34
2023-11-14T20:36:32.072Z,96510.94
2023-11-14T20:38:59.567Z,96506.69
2023-11-14T20:41:26.354Z,96513.50
2023-11-14T20:43:52.987Z,96509.25
2023-11-14T20:46:19.533Z,96510.94
2023-11-14T20:48:46.094Z,96513.50
2023-11-14T20:51:21.764Z,96521.16
2023-11-14T20:53:53.656Z,96522.88
2023-11-14T20:56:24.598Z,96514.38
2023-11-14T20:58:51.149Z,96516.91
2023-11-14T21:01:17.751Z,96509.25
2023-11-14T21:06:11.219Z,96522.03
2023-11-14T21:08:37.958Z,96524.56
2023-11-14T21:11:04.818Z,96504.94
2023-11-14T21:13:31.532Z,96481.91
2023-11-14T21:15:58.109Z,96481.06
2023-11-14T21:18:25.564Z,96516.88
2023-11-14T21:20:52.229Z,96530.53
2023-11-14T21:23:18.883Z,96527.13
2023-11-14T21:25:45.564Z,96517.72
2023-11-14T21:28:12.098Z,96516.03
2023-11-14T21:30:39.235Z,96515.16
2023-11-14T21:33:08.142Z,96522.84
2023-11-14T21:35:34.744Z,96510.88
2023-11-14T21:38:01.262Z,96493.75
2023-11-14T21:40:27.817Z,96513.47
2023-11-14T21:42:54.339Z,96511.78
2023-11-14T21:45:20.909Z,96526.25
2023-11-14T21:47:47.596Z,96528.81
2023-11-14T21:50:14.284Z,96518.56
2023-11-14T21:52:40.808Z,96526.16
2023-11-14T21:55:07.594Z,96537.34
2023-11-14T21:57:34.114Z,96538.19
2023-11-14T22:00:00.734Z,96545.84
2023-11-14T22:02:27.429Z,96552.66
2023-11-14T22:04:53.996Z,96562.06
2023-11-14T22:07:20.563Z,96566.34
2023-11-14T22:09:47.257Z,96566.34
2023-11-14T22:17:08.201Z,96570.63
2023-11-14T22:19:34.869Z,96568.09
2023-11-14T22:22:01.407Z,96570.63
2023-11-14T22:24:28.598Z,96562.09
2023-11-14T22:26:57.631Z,96568.03
2023-11-14T22:29:25.098Z,96559.47
2023-11-14T22:36:45.108Z,96586.00
2023-11-14T22:39:12.603Z,96591.94
2023-11-14T22:41:39.211Z,96597.03
2023-11-14T22:44:05.839Z,96597.94
2023-11-14T22:46:32.926Z,96603.06
2023-11-14T22:48:59.614Z,96607.28
2023-11-14T22:51:29.707Z,96622.66
2023-11-14T22:53:58.345Z,96620.09
2023-11-14T22:56:24.959Z,96626.94
2023-11-14T23:06:17.183Z,96628.59
2023-11-14T23:08:44.385Z,96643.94
2023-11-14T23:11:10.929Z,96635.44
2023-11-14T23:13:39.043Z,96639.72
2023-11-14T23:16:07.108Z,96649.94
2023-11-14T23:18:33.742Z,96650.78
2023-11-14T23:21:03.175Z,96650.78
2023-11-14T23:23:29.753Z,96660.19
2023-11-14T23:25:56.384Z,96663.59
2023-11-14T23:28:23.429Z,96665.31
2023-11-14T23:30:50.074Z,96673.00
2023-11-14T23:33:16.768Z,96678.91
2023-11-14T23:35:43.595Z,96679.78
2023-11-14T23:38:10.351Z,96683.19
2023-11-14T23:40:36.884Z,96684.88
2023-11-14T23:43:03.619Z,96693.41
2023-11-14T23:45:30.625Z,96697.66
2023-11-14T23:47:57.315Z,96698.56
2023-11-14T23:50:24.098Z,96695.97
2023-11-14T23:52:50.822Z,96692.56
2023-11-14T23:55:17.529Z,96696.00
2023-11-14T23:57:44.926Z,96696.00
